sensor_id;sensor_type;location;lat;lon;timestamp;temperature;humidity
32187;DHT22;18686;53.084;8.872;2022-11-09T00:01:24;13.60;99.90
32187;DHT22;18686;53.084;8.872;2022-11-09T00:03:54;13.60;99.90
32187;DHT22;18686;53.084;8.872;2022-11-09T00:06:23;13.60;99.90
32187;DHT22;18686;53.084;8.872;2022-11-09T00:08:54;13.50;99.90
32187;DHT22;18686;53.084;8.872;2022-11-09T00:11:22;13.40;99.90
32187;DHT22;18686;53.084;8.872;2022-11-09T00:13:50;13.30;99.90
32187;DHT22;18686;53.084;8.872;2022-11-09T00:16:20;13.20;99.90
32187;DHT22;18686;53.084;8.872;2022-11-09T00:18:48;13.10;99.90
32187;DHT22;18686;53.084;8.872;2022-11-09T00:21:19;13.00;99.90
32187;DHT22;18686;53.084;8.872;2022-11-09T00:23:47;12.90;99.90
32187;DHT22;18686;53.084;8.872;2022-11-09T00:26:18;12.80;99.90
32187;DHT22;18686;53.084;8.872;2022-11-09T00:28:47;12.80;99.90
32187;DHT22;18686;53.084;8.872;2022-11-09T00:31:17;12.70;99.90
32187;DHT22;18686;53.084;8.872;2022-11-09T00:33:47;12.60;99.90
32187;DHT22;18686;53.084;8.872;2022-11-09T00:36:17;12.60;99.90
32187;DHT22;18686;53.084;8.872;2022-11-09T00:38:47;12.60;99.90
32187;DHT22;18686;53.084;8.872;2022-11-09T00:41:18;12.50;99.90
32187;DHT22;18686;53.084;8.872;2022-11-09T00:43:47;12.50;99.90
32187;DHT22;18686;53.084;8.872;2022-11-09T00:46:16;12.60;99.90
32187;DHT22;18686;53.084;8.872;2022-11-09T00:48:44;12.50;99.90
32187;DHT22;18686;53.084;8.872;2022-11-09T00:51:13;12.50;99.90
32187;DHT22;18686;53.084;8.872;2022-11-09T00:53:41;12.50;99.90
32187;DHT22;18686;53.084;8.872;2022-11-09T00:56:11;12.50;99.90
32187;DHT22;18686;53.084;8.872;2022-11-09T00:58:41;12.50;99.90
32187;DHT22;18686;53.084;8.872;2022-11-09T01:01:11;12.60;99.90
32187;DHT22;18686;53.084;8.872;2022-11-09T01:03:42;12.70;99.90
32187;DHT22;18686;53.084;8.872;2022-11-09T01:06:13;12.70;99.90
32187;DHT22;18686;53.084;8.872;2022-11-09T01:08:42;12.70;99.90
32187;DHT22;18686;53.084;8.872;2022-11-09T01:11:14;12.70;99.90
32187;DHT22;18686;53.084;8.872;2022-11-09T01:13:44;12.70;99.90
32187;DHT22;18686;53.084;8.872;2022-11-09T01:16:13;12.70;99.90
32187;DHT22;18686;53.084;8.872;2022-11-09T01:18:42;12.70;99.90
32187;DHT22;18686;53.084;8.872;2022-11-09T01:21:11;12.60;99.90
32187;DHT22;18686;53.084;8.872;2022-11-09T01:23:40;12.60;99.90
32187;DHT22;18686;53.084;8.872;2022-11-09T01:26:11;12.60;99.90
32187;DHT22;18686;53.084;8.872;2022-11-09T01:28:40;12.70;99.90
32187;DHT22;18686;53.084;8.872;2022-11-09T01:31:11;12.70;99.90
32187;DHT22;18686;53.084;8.872;2022-11-09T01:33:40;12.60;99.90
32187;DHT22;18686;53.084;8.872;2022-11-09T01:36:10;12.70;99.90
32187;DHT22;18686;53.084;8.872;2022-11-09T01:38:39;12.70;99.90
32187;DHT22;18686;53.084;8.872;2022-11-09T01:41:11;12.70;99.90
32187;DHT22;18686;53.084;8.872;2022-11-09T01:43:39;12.80;99.90
32187;DHT22;18686;53.084;8.872;2022-11-09T01:46:16;12.80;99.90
32187;DHT22;18686;53.084;8.872;2022-11-09T01:48:49;12.80;99.90
32187;DHT22;18686;53.084;8.872;2022-11-09T01:51:23;12.80;99.90
32187;DHT22;18686;53.084;8.872;2022-11-09T01:54:00;12.80;99.90
32187;DHT22;18686;53.084;8.872;2022-11-09T01:56:29;12.80;99.90
32187;DHT22;18686;53.084;8.872;2022-11-09T01:59:00;12.80;99.90
32187;DHT22;18686;53.084;8.872;2022-11-09T02:01:32;12.90;99.90
32187;DHT22;18686;53.084;8.872;2022-11-09T02:04:04;12.90;99.90
32187;DHT22;18686;53.084;8.872;2022-11-09T02:06:34;12.90;99.90
32187;DHT22;18686;53.084;8.872;2022-11-09T02:09:07;12.90;99.90
32187;DHT22;18686;53.084;8.872;2022-11-09T02:11:37;13.00;99.90
32187;DHT22;18686;53.084;8.872;2022-11-09T02:14:06;13.00;99.90
32187;DHT22;18686;53.084;8.872;2022-11-09T02:16:36;13.00;99.90
32187;DHT22;18686;53.084;8.872;2022-11-09T02:19:04;13.00;99.90
32187;DHT22;18686;53.084;8.872;2022-11-09T02:21:34;13.00;99.90
32187;DHT22;18686;53.084;8.872;2022-11-09T02:24:02;13.10;99.90
32187;DHT22;18686;53.084;8.872;2022-11-09T02:26:34;13.10;99.90
32187;DHT22;18686;53.084;8.872;2022-11-09T02:29:06;13.00;99.90
32187;DHT22;18686;53.084;8.872;2022-11-09T02:31:38;13.00;99.90
32187;DHT22;18686;53.084;8.872;2022-11-09T02:34:10;12.90;99.90
32187;DHT22;18686;53.084;8.872;2022-11-09T02:36:41;12.90;99.90
32187;DHT22;18686;53.084;8.872;2022-11-09T02:39:16;12.80;99.90
32187;DHT22;18686;53.084;8.872;2022-11-09T02:41:49;12.80;99.90
32187;DHT22;18686;53.084;8.872;2022-11-09T02:44:18;12.80;99.90
32187;DHT22;18686;53.084;8.872;2022-11-09T02:46:46;12.80;99.90
32187;DHT22;18686;53.084;8.872;2022-11-09T02:49:15;12.60;99.90
32187;DHT22;18686;53.084;8.872;2022-11-09T02:51:45;12.60;99.90
32187;DHT22;18686;53.084;8.872;2022-11-09T02:54:13;12.60;99.90
32187;DHT22;18686;53.084;8.872;2022-11-09T02:56:41;12.60;99.90
32187;DHT22;18686;53.084;8.872;2022-11-09T02:59:09;12.60;99.90
32187;DHT22;18686;53.084;8.872;2022-11-09T03:01:38;12.70;99.90
32187;DHT22;18686;53.084;8.872;2022-11-09T03:04:06;12.70;99.90
32187;DHT22;18686;53.084;8.872;2022-11-09T03:06:35;12.70;99.90
32187;DHT22;18686;53.084;8.872;2022-11-09T03:09:11;12.70;99.90
32187;DHT22;18686;53.084;8.872;2022-11-09T03:11:40;12.70;99.90
32187;DHT22;18686;53.084;8.872;2022-11-09T03:14:11;12.70;99.90
32187;DHT22;18686;53.084;8.872;2022-11-09T03:16:46;12.70;99.90
32187;DHT22;18686;53.084;8.872;2022-11-09T03:19:17;12.70;99.90
32187;DHT22;18686;53.084;8.872;2022-11-09T03:21:48;12.70;99.90
32187;DHT22;18686;53.084;8.872;2022-11-09T03:24:22;12.70;99.90
32187;DHT22;18686;53.084;8.872;2022-11-09T03:26:53;12.60;99.90
32187;DHT22;18686;53.084;8.872;2022-11-09T03:29:22;12.70;99.90
32187;DHT22;18686;53.084;8.872;2022-11-09T03:31:50;12.70;99.90
32187;DHT22;18686;53.084;8.872;2022-11-09T03:34:18;12.70;99.90
32187;DHT22;18686;53.084;8.872;2022-11-09T03:36:46;12.80;99.90
32187;DHT22;18686;53.084;8.872;2022-11-09T03:39:15;12.70;99.90
32187;DHT22;18686;53.084;8.872;2022-11-09T03:41:45;12.70;99.90
32187;DHT22;18686;53.084;8.872;2022-11-09T03:44:13;12.70;99.90
32187;DHT22;18686;53.084;8.872;2022-11-09T03:46:41;12.60;99.90
32187;DHT22;18686;53.084;8.872;2022-11-09T03:49:09;12.60;99.90
32187;DHT22;18686;53.084;8.872;2022-11-09T03:51:37;12.60;99.90
32187;DHT22;18686;53.084;8.872;2022-11-09T03:54:06;12.60;99.90
32187;DHT22;18686;53.084;8.872;2022-11-09T03:56:34;12.70;99.90
32187;DHT22;18686;53.084;8.872;2022-11-09T03:59:03;12.70;99.90
32187;DHT22;18686;53.084;8.872;2022-11-09T04:01:31;12.70;99.90
32187;DHT22;18686;53.084;8.872;2022-11-09T04:04:00;12.80;99.90
32187;DHT22;18686;53.084;8.872;2022-11-09T04:06:28;12.90;99.90
32187;DHT22;18686;53.084;8.872;2022-11-09T04:08:56;12.90;99.90
32187;DHT22;18686;53.084;8.872;2022-11-09T04:11:24;12.90;99.90
32187;DHT22;18686;53.084;8.872;2022-11-09T04:13:52;12.90;99.90
32187;DHT22;18686;53.084;8.872;2022-11-09T04:16:22;12.90;99.90
32187;DHT22;18686;53.084;8.872;2022-11-09T04:18:50;12.90;99.90
32187;DHT22;18686;53.084;8.872;2022-11-09T04:21:18;12.90;99.90
32187;DHT22;18686;53.084;8.872;2022-11-09T04:23:49;12.80;99.90
32187;DHT22;18686;53.084;8.872;2022-11-09T04:26:17;12.80;99.90
32187;DHT22;18686;53.084;8.872;2022-11-09T04:28:45;12.80;99.90
32187;DHT22;18686;53.084;8.872;2022-11-09T04:31:14;12.70;99.90
32187;DHT22;18686;53.084;8.872;2022-11-09T04:33:43;12.70;99.90
32187;DHT22;18686;53.084;8.872;2022-11-09T04:36:15;12.70;99.90
32187;DHT22;18686;53.084;8.872;2022-11-09T04:38:44;12.70;99.90
32187;DHT22;18686;53.084;8.872;2022-11-09T04:41:12;12.80;99.90
32187;DHT22;18686;53.084;8.872;2022-11-09T04:43:40;12.80;99.90
32187;DHT22;18686;53.084;8.872;2022-11-09T04:46:08;12.90;99.90
32187;DHT22;18686;53.084;8.872;2022-11-09T04:48:36;12.90;99.90
32187;DHT22;18686;53.084;8.872;2022-11-09T04:51:08;12.90;99.90
32187;DHT22;18686;53.084;8.872;2022-11-09T04:53:37;13.00;99.90
32187;DHT22;18686;53.084;8.872;2022-11-09T04:56:06;13.00;99.90
32187;DHT22;18686;53.084;8.872;2022-11-09T04:58:34;13.10;99.90
32187;DHT22;18686;53.084;8.872;2022-11-09T05:01:03;13.10;99.90
32187;DHT22;18686;53.084;8.872;2022-11-09T05:03:32;13.10;99.90
32187;DHT22;18686;53.084;8.872;2022-11-09T05:06:00;13.10;99.90
32187;DHT22;18686;53.084;8.872;2022-11-09T05:08:49;13.00;99.90
32187;DHT22;18686;53.084;8.872;2022-11-09T05:11:18;12.90;99.90
32187;DHT22;18686;53.084;8.872;2022-11-09T05:13:46;12.80;99.90
32187;DHT22;18686;53.084;8.872;2022-11-09T05:16:14;12.80;99.90
32187;DHT22;18686;53.084;8.872;2022-11-09T05:18:43;12.80;99.90
32187;DHT22;18686;53.084;8.872;2022-11-09T05:21:12;12.90;99.90
32187;DHT22;18686;53.084;8.872;2022-11-09T05:23:40;13.00;99.90
32187;DHT22;18686;53.084;8.872;2022-11-09T05:26:33;13.10;99.90
32187;DHT22;18686;53.084;8.872;2022-11-09T05:29:03;13.10;99.90
32187;DHT22;18686;53.084;8.872;2022-11-09T05:31:33;13.10;99.90
32187;DHT22;18686;53.084;8.872;2022-11-09T05:34:01;13.10;99.90
32187;DHT22;18686;53.084;8.872;2022-11-09T05:36:30;13.10;99.90
32187;DHT22;18686;53.084;8.872;2022-11-09T05:38:59;13.10;99.90
32187;DHT22;18686;53.084;8.872;2022-11-09T05:41:28;13.00;99.90
32187;DHT22;18686;53.084;8.872;2022-11-09T05:43:57;12.90;99.90
32187;DHT22;18686;53.084;8.872;2022-11-09T05:46:25;12.90;99.90
32187;DHT22;18686;53.084;8.872;2022-11-09T05:48:54;12.80;99.90
32187;DHT22;18686;53.084;8.872;2022-11-09T05:51:23;12.70;99.90
32187;DHT22;18686;53.084;8.872;2022-11-09T05:53:51;12.80;99.90
32187;DHT22;18686;53.084;8.872;2022-11-09T05:56:19;12.80;99.90
32187;DHT22;18686;53.084;8.872;2022-11-09T05:58:47;12.80;99.90
32187;DHT22;18686;53.084;8.872;2022-11-09T06:01:17;12.80;99.90
32187;DHT22;18686;53.084;8.872;2022-11-09T06:03:45;12.80;99.90
32187;DHT22;18686;53.084;8.872;2022-11-09T06:06:15;12.80;99.90
32187;DHT22;18686;53.084;8.872;2022-11-09T06:08:43;12.80;99.90
32187;DHT22;18686;53.084;8.872;2022-11-09T06:11:12;12.80;99.90
32187;DHT22;18686;53.084;8.872;2022-11-09T06:13:49;12.80;99.90
32187;DHT22;18686;53.084;8.872;2022-11-09T06:16:18;12.80;99.90
32187;DHT22;18686;53.084;8.872;2022-11-09T06:18:47;12.80;99.90
32187;DHT22;18686;53.084;8.872;2022-11-09T06:21:15;12.80;99.90
32187;DHT22;18686;53.084;8.872;2022-11-09T06:23:43;12.80;99.90
32187;DHT22;18686;53.084;8.872;2022-11-09T06:26:11;12.80;99.90
32187;DHT22;18686;53.084;8.872;2022-11-09T06:28:40;12.70;99.90
32187;DHT22;18686;53.084;8.872;2022-11-09T06:31:11;12.60;99.90
32187;DHT22;18686;53.084;8.872;2022-11-09T06:33:41;12.60;99.90
32187;DHT22;18686;53.084;8.872;2022-11-09T06:36:09;12.60;99.90
32187;DHT22;18686;53.084;8.872;2022-11-09T06:38:38;12.60;99.90
32187;DHT22;18686;53.084;8.872;2022-11-09T06:41:07;12.50;99.90
32187;DHT22;18686;53.084;8.872;2022-11-09T06:43:36;12.50;99.90
32187;DHT22;18686;53.084;8.872;2022-11-09T06:46:04;12.60;99.90
32187;DHT22;18686;53.084;8.872;2022-11-09T06:48:33;12.70;99.90
32187;DHT22;18686;53.084;8.872;2022-11-09T06:51:04;12.70;99.90
32187;DHT22;18686;53.084;8.872;2022-11-09T06:53:33;12.70;99.90
32187;DHT22;18686;53.084;8.872;2022-11-09T06:56:04;12.80;99.90
32187;DHT22;18686;53.084;8.872;2022-11-09T06:58:33;12.80;99.90
32187;DHT22;18686;53.084;8.872;2022-11-09T07:01:06;12.80;99.90
32187;DHT22;18686;53.084;8.872;2022-11-09T07:03:36;12.80;99.90
32187;DHT22;18686;53.084;8.872;2022-11-09T07:06:08;12.80;99.90
32187;DHT22;18686;53.084;8.872;2022-11-09T07:08:36;12.80;99.90
32187;DHT22;18686;53.084;8.872;2022-11-09T07:11:05;12.70;99.90
32187;DHT22;18686;53.084;8.872;2022-11-09T07:13:34;12.70;99.90
32187;DHT22;18686;53.084;8.872;2022-11-09T07:16:03;12.70;99.90
32187;DHT22;18686;53.084;8.872;2022-11-09T07:18:31;12.70;99.90
32187;DHT22;18686;53.084;8.872;2022-11-09T07:21:00;12.80;99.90
32187;DHT22;18686;53.084;8.872;2022-11-09T07:23:38;12.90;99.90
32187;DHT22;18686;53.084;8.872;2022-11-09T07:26:07;13.00;99.90
32187;DHT22;18686;53.084;8.872;2022-11-09T07:28:35;13.00;99.90
32187;DHT22;18686;53.084;8.872;2022-11-09T07:31:03;13.10;99.90
32187;DHT22;18686;53.084;8.872;2022-11-09T07:33:32;13.10;99.90
32187;DHT22;18686;53.084;8.872;2022-11-09T07:36:02;13.20;99.90
32187;DHT22;18686;53.084;8.872;2022-11-09T07:38:30;13.30;99.90
32187;DHT22;18686;53.084;8.872;2022-11-09T07:41:00;13.40;99.90
32187;DHT22;18686;53.084;8.872;2022-11-09T07:43:29;13.40;99.90
32187;DHT22;18686;53.084;8.872;2022-11-09T07:46:02;13.50;99.90
32187;DHT22;18686;53.084;8.872;2022-11-09T07:48:30;13.70;99.90
32187;DHT22;18686;53.084;8.872;2022-11-09T07:51:00;13.90;99.90
32187;DHT22;18686;53.084;8.872;2022-11-09T07:53:28;14.00;99.90
32187;DHT22;18686;53.084;8.872;2022-11-09T07:55:57;14.10;99.90
32187;DHT22;18686;53.084;8.872;2022-11-09T07:58:27;14.30;99.90
32187;DHT22;18686;53.084;8.872;2022-11-09T08:00:55;14.40;99.90
32187;DHT22;18686;53.084;8.872;2022-11-09T08:03:23;14.50;99.90
32187;DHT22;18686;53.084;8.872;2022-11-09T08:05:52;14.60;99.90
32187;DHT22;18686;53.084;8.872;2022-11-09T08:08:20;14.60;99.90
32187;DHT22;18686;53.084;8.872;2022-11-09T08:10:48;14.60;99.90
32187;DHT22;18686;53.084;8.872;2022-11-09T08:13:18;14.60;99.90
32187;DHT22;18686;53.084;8.872;2022-11-09T08:15:49;14.70;99.90
32187;DHT22;18686;53.084;8.872;2022-11-09T08:18:18;14.80;99.90
32187;DHT22;18686;53.084;8.872;2022-11-09T08:20:48;14.80;99.90
32187;DHT22;18686;53.084;8.872;2022-11-09T08:23:17;14.80;99.90
32187;DHT22;18686;53.084;8.872;2022-11-09T08:25:48;14.80;99.90
32187;DHT22;18686;53.084;8.872;2022-11-09T08:28:17;14.90;99.90
32187;DHT22;18686;53.084;8.872;2022-11-09T08:30:55;14.90;99.90
32187;DHT22;18686;53.084;8.872;2022-11-09T08:33:23;15.00;99.90
32187;DHT22;18686;53.084;8.872;2022-11-09T08:35:52;15.20;99.90
32187;DHT22;18686;53.084;8.872;2022-11-09T08:38:21;15.30;99.90
32187;DHT22;18686;53.084;8.872;2022-11-09T08:40:49;15.70;99.90
32187;DHT22;18686;53.084;8.872;2022-11-09T08:43:22;16.40;99.90
32187;DHT22;18686;53.084;8.872;2022-11-09T08:45:51;17.60;99.20
32187;DHT22;18686;53.084;8.872;2022-11-09T08:48:20;19.10;95.80
32187;DHT22;18686;53.084;8.872;2022-11-09T08:50:52;20.30;85.00
32187;DHT22;18686;53.084;8.872;2022-11-09T08:53:20;21.50;72.70
32187;DHT22;18686;53.084;8.872;2022-11-09T08:55:48;22.20;69.10
32187;DHT22;18686;53.084;8.872;2022-11-09T08:58:17;22.30;65.50
32187;DHT22;18686;53.084;8.872;2022-11-09T09:00:45;22.80;63.60
32187;DHT22;18686;53.084;8.872;2022-11-09T09:03:14;22.90;60.50
32187;DHT22;18686;53.084;8.872;2022-11-09T09:05:43;23.00;59.60
32187;DHT22;18686;53.084;8.872;2022-11-09T09:08:11;22.90;57.40
32187;DHT22;18686;53.084;8.872;2022-11-09T09:10:41;23.10;57.10
32187;DHT22;18686;53.084;8.872;2022-11-09T09:13:10;22.90;56.70
32187;DHT22;18686;53.084;8.872;2022-11-09T09:15:38;22.80;57.30
32187;DHT22;18686;53.084;8.872;2022-11-09T09:18:06;22.70;57.00
32187;DHT22;18686;53.084;8.872;2022-11-09T09:20:34;22.50;55.10
32187;DHT22;18686;53.084;8.872;2022-11-09T09:23:04;22.60;56.40
32187;DHT22;18686;53.084;8.872;2022-11-09T09:25:32;22.10;55.80
32187;DHT22;18686;53.084;8.872;2022-11-09T09:28:00;21.90;56.90
32187;DHT22;18686;53.084;8.872;2022-11-09T09:30:29;21.80;57.20
32187;DHT22;18686;53.084;8.872;2022-11-09T09:32:57;21.50;57.30
32187;DHT22;18686;53.084;8.872;2022-11-09T09:35:27;21.40;58.20
32187;DHT22;18686;53.084;8.872;2022-11-09T09:37:55;21.10;59.30
32187;DHT22;18686;53.084;8.872;2022-11-09T09:40:30;21.00;59.60
32187;DHT22;18686;53.084;8.872;2022-11-09T09:43:00;20.90;59.40
32187;DHT22;18686;53.084;8.872;2022-11-09T09:45:32;20.60;59.90
32187;DHT22;18686;53.084;8.872;2022-11-09T09:48:10;20.30;60.60
32187;DHT22;18686;53.084;8.872;2022-11-09T09:50:45;20.20;61.30
32187;DHT22;18686;53.084;8.872;2022-11-09T09:53:21;19.90;62.00
32187;DHT22;18686;53.084;8.872;2022-11-09T09:55:56;19.60;63.00
32187;DHT22;18686;53.084;8.872;2022-11-09T09:58:28;19.30;64.60
32187;DHT22;18686;53.084;8.872;2022-11-09T10:00:59;19.60;63.60
32187;DHT22;18686;53.084;8.872;2022-11-09T10:03:30;20.00;62.50
32187;DHT22;18686;53.084;8.872;2022-11-09T10:14:43;23.70;55.80
32187;DHT22;18686;53.084;8.872;2022-11-09T10:17:20;26.50;51.10
32187;DHT22;18686;53.084;8.872;2022-11-09T10:19:59;28.80;46.40
32187;DHT22;18686;53.084;8.872;2022-11-09T10:22:34;30.50;42.90
32187;DHT22;18686;53.084;8.872;2022-11-09T10:25:11;32.00;40.00
32187;DHT22;18686;53.084;8.872;2022-11-09T10:28:03;32.10;37.90
32187;DHT22;18686;53.084;8.872;2022-11-09T10:30:40;31.30;36.90
32187;DHT22;18686;53.084;8.872;2022-11-09T10:33:14;30.60;37.20
32187;DHT22;18686;53.084;8.872;2022-11-09T10:35:45;28.70;37.40
32187;DHT22;18686;53.084;8.872;2022-11-09T10:38:20;27.70;39.90
32187;DHT22;18686;53.084;8.872;2022-11-09T10:41:26;27.60;40.70
32187;DHT22;18686;53.084;8.872;2022-11-09T10:44:14;27.40;41.10
32187;DHT22;18686;53.084;8.872;2022-11-09T10:47:06;27.00;40.80
32187;DHT22;18686;53.084;8.872;2022-11-09T10:50:06;28.60;41.00
32187;DHT22;18686;53.084;8.872;2022-11-09T10:53:07;30.40;37.10
32187;DHT22;18686;53.084;8.872;2022-11-09T10:55:56;31.70;36.50
32187;DHT22;18686;53.084;8.872;2022-11-09T10:58:46;31.90;35.00
32187;DHT22;18686;53.084;8.872;2022-11-09T11:01:35;31.00;34.50
32187;DHT22;18686;53.084;8.872;2022-11-09T11:04:25;30.00;35.70
32187;DHT22;18686;53.084;8.872;2022-11-09T11:07:13;27.80;38.20
32187;DHT22;18686;53.084;8.872;2022-11-09T11:10:10;25.80;40.70
32187;DHT22;18686;53.084;8.872;2022-11-09T11:13:18;24.70;42.70
32187;DHT22;18686;53.084;8.872;2022-11-09T11:16:25;23.60;45.10
32187;DHT22;18686;53.084;8.872;2022-11-09T11:19:34;23.40;46.70
32187;DHT22;18686;53.084;8.872;2022-11-09T11:22:23;22.70;46.90
32187;DHT22;18686;53.084;8.872;2022-11-09T11:25:18;22.80;48.40
32187;DHT22;18686;53.084;8.872;2022-11-09T11:28:14;23.70;46.90
32187;DHT22;18686;53.084;8.872;2022-11-09T11:31:03;24.80;43.90
32187;DHT22;18686;53.084;8.872;2022-11-09T11:33:51;25.50;42.30
32187;DHT22;18686;53.084;8.872;2022-11-09T11:36:49;25.60;41.90
32187;DHT22;18686;53.084;8.872;2022-11-09T11:39:51;24.80;41.90
32187;DHT22;18686;53.084;8.872;2022-11-09T11:43:09;24.10;43.80
32187;DHT22;18686;53.084;8.872;2022-11-09T11:46:06;23.00;45.90
32187;DHT22;18686;53.084;8.872;2022-11-09T11:52:28;20.90;50.70
32187;DHT22;18686;53.084;8.872;2022-11-09T11:55:29;20.00;53.10
32187;DHT22;18686;53.084;8.872;2022-11-09T11:58:26;19.50;54.30
32187;DHT22;18686;53.084;8.872;2022-11-09T12:01:30;19.40;55.00
32187;DHT22;18686;53.084;8.872;2022-11-09T12:04:36;19.40;55.90
32187;DHT22;18686;53.084;8.872;2022-11-09T12:07:33;19.90;56.00
32187;DHT22;18686;53.084;8.872;2022-11-09T12:10:31;21.20;54.80
32187;DHT22;18686;53.084;8.872;2022-11-09T12:13:54;22.40;49.70
32187;DHT22;18686;53.084;8.872;2022-11-09T12:16:47;22.20;48.70
32187;DHT22;18686;53.084;8.872;2022-11-09T12:19:57;22.60;47.60
32187;DHT22;18686;53.084;8.872;2022-11-09T12:23:00;23.60;46.60
32187;DHT22;18686;53.084;8.872;2022-11-09T12:25:54;23.60;45.10
32187;DHT22;18686;53.084;8.872;2022-11-09T12:28:56;22.90;45.20
32187;DHT22;18686;53.084;8.872;2022-11-09T12:31:52;21.60;47.50
32187;DHT22;18686;53.084;8.872;2022-11-09T12:34:45;20.90;49.40
32187;DHT22;18686;53.084;8.872;2022-11-09T12:37:36;19.90;51.00
32187;DHT22;18686;53.084;8.872;2022-11-09T12:40:28;19.30;52.70
32187;DHT22;18686;53.084;8.872;2022-11-09T12:43:18;18.80;53.80
32187;DHT22;18686;53.084;8.872;2022-11-09T12:46:09;18.50;55.40
32187;DHT22;18686;53.084;8.872;2022-11-09T12:49:00;18.20;56.60
32187;DHT22;18686;53.084;8.872;2022-11-09T12:51:47;17.90;57.50
32187;DHT22;18686;53.084;8.872;2022-11-09T12:54:43;18.40;58.40
32187;DHT22;18686;53.084;8.872;2022-11-09T12:57:32;19.70;55.30
32187;DHT22;18686;53.084;8.872;2022-11-09T13:00:48;20.50;52.30
32187;DHT22;18686;53.084;8.872;2022-11-09T13:03:37;21.00;51.10
32187;DHT22;18686;53.084;8.872;2022-11-09T13:06:26;21.90;50.80
32187;DHT22;18686;53.084;8.872;2022-11-09T13:09:22;22.60;48.70
32187;DHT22;18686;53.084;8.872;2022-11-09T13:12:17;23.30;47.40
32187;DHT22;18686;53.084;8.872;2022-11-09T13:15:23;23.70;44.80
32187;DHT22;18686;53.084;8.872;2022-11-09T13:18:26;24.00;44.30
32187;DHT22;18686;53.084;8.872;2022-11-09T13:21:38;24.00;43.20
32187;DHT22;18686;53.084;8.872;2022-11-09T13:24:53;23.40;43.70
32187;DHT22;18686;53.084;8.872;2022-11-09T13:27:42;22.10;45.20
32187;DHT22;18686;53.084;8.872;2022-11-09T13:30:48;21.00;47.80
32187;DHT22;18686;53.084;8.872;2022-11-09T13:33:36;20.40;49.80
32187;DHT22;18686;53.084;8.872;2022-11-09T13:36:24;19.50;51.40
32187;DHT22;18686;53.084;8.872;2022-11-09T13:39:33;18.90;52.80
32187;DHT22;18686;53.084;8.872;2022-11-09T13:42:26;18.40;54.60
32187;DHT22;18686;53.084;8.872;2022-11-09T13:45:30;18.00;56.20
32187;DHT22;18686;53.084;8.872;2022-11-09T13:48:40;17.70;57.00
32187;DHT22;18686;53.084;8.872;2022-11-09T13:51:46;17.40;58.10
32187;DHT22;18686;53.084;8.872;2022-11-09T13:54:34;17.20;58.50
32187;DHT22;18686;53.084;8.872;2022-11-09T13:57:23;17.00;59.30
32187;DHT22;18686;53.084;8.872;2022-11-09T14:00:15;16.80;60.30
32187;DHT22;18686;53.084;8.872;2022-11-09T14:03:17;16.70;61.00
32187;DHT22;18686;53.084;8.872;2022-11-09T14:06:10;16.60;61.70
32187;DHT22;18686;53.084;8.872;2022-11-09T14:08:58;16.60;62.20
32187;DHT22;18686;53.084;8.872;2022-11-09T14:11:59;16.70;61.80
32187;DHT22;18686;53.084;8.872;2022-11-09T14:15:02;16.70;61.80
32187;DHT22;18686;53.084;8.872;2022-11-09T14:18:02;16.50;62.10
32187;DHT22;18686;53.084;8.872;2022-11-09T14:20:55;16.40;62.50
32187;DHT22;18686;53.084;8.872;2022-11-09T14:23:44;16.30;63.30
32187;DHT22;18686;53.084;8.872;2022-11-09T14:26:31;16.00;64.10
32187;DHT22;18686;53.084;8.872;2022-11-09T14:29:20;15.70;65.10
32187;DHT22;18686;53.084;8.872;2022-11-09T14:32:26;15.60;65.90
32187;DHT22;18686;53.084;8.872;2022-11-09T14:35:22;15.40;67.40
32187;DHT22;18686;53.084;8.872;2022-11-09T14:38:16;15.30;68.60
32187;DHT22;18686;53.084;8.872;2022-11-09T14:41:17;15.10;69.40
32187;DHT22;18686;53.084;8.872;2022-11-09T14:44:08;15.00;70.70
32187;DHT22;18686;53.084;8.872;2022-11-09T14:46:59;14.90;71.90
32187;DHT22;18686;53.084;8.872;2022-11-09T14:49:47;14.80;73.20
32187;DHT22;18686;53.084;8.872;2022-11-09T14:52:34;14.70;74.10
32187;DHT22;18686;53.084;8.872;2022-11-09T14:55:23;14.70;75.10
32187;DHT22;18686;53.084;8.872;2022-11-09T14:58:13;14.70;75.80
32187;DHT22;18686;53.084;8.872;2022-11-09T15:01:08;14.70;76.50
32187;DHT22;18686;53.084;8.872;2022-11-09T15:04:07;14.70;77.30
32187;DHT22;18686;53.084;8.872;2022-11-09T15:06:58;14.70;77.80
32187;DHT22;18686;53.084;8.872;2022-11-09T15:09:49;14.80;78.20
32187;DHT22;18686;53.084;8.872;2022-11-09T15:12:37;14.80;78.70
32187;DHT22;18686;53.084;8.872;2022-11-09T15:15:33;14.80;79.40
32187;DHT22;18686;53.084;8.872;2022-11-09T15:18:23;14.80;79.90
32187;DHT22;18686;53.084;8.872;2022-11-09T15:21:19;14.70;80.40
32187;DHT22;18686;53.084;8.872;2022-11-09T15:24:18;14.70;81.10
32187;DHT22;18686;53.084;8.872;2022-11-09T15:27:27;14.70;81.50
32187;DHT22;18686;53.084;8.872;2022-11-09T15:30:30;14.60;82.20
32187;DHT22;18686;53.084;8.872;2022-11-09T15:33:27;14.60;83.60
32187;DHT22;18686;53.084;8.872;2022-11-09T15:36:25;14.60;84.70
32187;DHT22;18686;53.084;8.872;2022-11-09T15:39:15;14.60;88.70
32187;DHT22;18686;53.084;8.872;2022-11-09T15:42:02;14.50;90.10
32187;DHT22;18686;53.084;8.872;2022-11-09T15:44:51;14.40;89.80
32187;DHT22;18686;53.084;8.872;2022-11-09T15:47:38;14.20;90.60
32187;DHT22;18686;53.084;8.872;2022-11-09T15:50:27;14.20;90.90
32187;DHT22;18686;53.084;8.872;2022-11-09T15:53:14;14.10;91.40
32187;DHT22;18686;53.084;8.872;2022-11-09T15:56:01;14.00;91.40
32187;DHT22;18686;53.084;8.872;2022-11-09T15:58:48;14.00;91.10
32187;DHT22;18686;53.084;8.872;2022-11-09T16:01:36;13.90;91.60
32187;DHT22;18686;53.084;8.872;2022-11-09T16:04:24;13.80;91.40
32187;DHT22;18686;53.084;8.872;2022-11-09T16:07:14;13.80;91.70
32187;DHT22;18686;53.084;8.872;2022-11-09T16:10:01;13.70;92.10
32187;DHT22;18686;53.084;8.872;2022-11-09T16:12:49;13.70;92.30
32187;DHT22;18686;53.084;8.872;2022-11-09T16:15:37;13.70;92.70
32187;DHT22;18686;53.084;8.872;2022-11-09T16:18:24;13.70;92.90
32187;DHT22;18686;53.084;8.872;2022-11-09T16:21:14;13.70;92.90
32187;DHT22;18686;53.084;8.872;2022-11-09T16:24:03;13.70;93.00
32187;DHT22;18686;53.084;8.872;2022-11-09T16:26:50;13.60;93.30
32187;DHT22;18686;53.084;8.872;2022-11-09T16:29:38;13.70;93.50
32187;DHT22;18686;53.084;8.872;2022-11-09T16:32:26;13.70;93.50
32187;DHT22;18686;53.084;8.872;2022-11-09T16:35:13;13.60;93.40
32187;DHT22;18686;53.084;8.872;2022-11-09T16:38:15;13.60;93.60
32187;DHT22;18686;53.084;8.872;2022-11-09T16:41:04;13.50;93.90
32187;DHT22;18686;53.084;8.872;2022-11-09T16:43:52;13.40;94.30
32187;DHT22;18686;53.084;8.872;2022-11-09T16:46:41;13.40;94.50
32187;DHT22;18686;53.084;8.872;2022-11-09T16:49:29;13.40;94.40
32187;DHT22;18686;53.084;8.872;2022-11-09T16:52:16;13.40;94.70